メインページ
METAR-TAF:

METAR-TAF

空港 :

帯広空港

帯広, 日本

緯度: 42-44N, 経度: 143-13E, 海抜: 149m

現時点の気象観測

当レポートは48分前の08:00(UTC)に作成
北/北西の風 9kt
気温 -9°C
湿度 57%
気圧 1023 hPa
視程10km以上
高度3000ftの雲はほとんどない

METAR: RJCB 100800Z 33009KT 9999 FEW030 M09/M16 Q1023

時間: 17:48 (08:48 UTC)

予報

当レポートは3時間41分前の05:07(UTC)に作成
予報は10日の 06時(UTC)から 11日の 12時(UTC)まで有効
北/北西の風 10kt
視程10km以上
高度3000ftの雲はほとんどない
10日の 18時(UTC)から 10日の 21時(UTC)まで徐々に
南東の風 5kt

TAF: RJCB 100507Z 1006/1112 34010KT 9999 FEW030 BECMG 1018/1021 14005KT

4,000以上の空港の気象観測と天気予報(METAR報とTAF報)

利用可能な観測所は地図上に黄色い丸と赤い丸で示す。

丸の上にカーソルを重ねると観測所名を参照できる。

次にクリックすると気象観測と天気予報を参照できる。

マップの切り替え:黒色「×」印の緑ボタンをクリックして拡大、「-」印の緑ボタンをクリックして縮小、緑色の三角印をクリックして隣りの地図に切り替え


METAR-TAF: